Time;durP1;ratioP1;P1;durP2;ratioP2;P2;SDS_P1;SDS_P2;PMS_P1;PMS_P2;Temp;Humidity;BMP_temperature;BMP_pressure;BME280_temperature;BME280_humidity;BME280_pressure;Samples;Min_cycle;Max_cycle;Signal;HPM_P1;HPM_P2
2023/03/21 00:01:50;;;;;;;;;;;;;;;9.16;64.46;98180.81;5061959;28;19928;-53
2023/03/21 00:04:19;;;;;;;;;;;;;;;9.16;64.20;98177.28;5069216;28;19936;-54
2023/03/21 00:06:47;;;;;;;;;;;;;;;9.09;64.06;98183.09;5069503;28;19951;-53
2023/03/21 00:09:15;;;;;;;;;;;;;;;9.13;64.14;98183.31;5064752;28;19932;-53
2023/03/21 00:11:43;;;;;;;;;;;;;;;9.08;63.89;98181.47;5068992;28;20301;-54
2023/03/21 00:14:13;;;;;;;;;;;;;;;9.16;63.34;98177.28;5067766;28;19983;-54
2023/03/21 00:17:02;;;;;;;;;;;;;;;9.04;63.82;98182.34;5068411;28;20019;-55
2023/03/21 00:19:31;;;;;;;;;;;;;;;9.01;63.95;98180.25;5065770;28;20394;-54
2023/03/21 00:22:01;;;;;;;;;;;;;;;9.10;63.62;98179.28;5068288;28;19947;-54
2023/03/21 00:24:35;;;;;;;;;;;;;;;9.11;63.23;98182.81;5067737;28;20288;-53
2023/03/21 00:27:03;;;;;;;;;;;;;;;9.10;63.72;98178.47;5068684;28;19925;-54
2023/03/21 00:29:51;;;;;;;;;;;;;;;9.13;63.74;98183.31;5063260;28;19924;-54
2023/03/21 00:32:19;;;;;;;;;;;;;;;9.00;63.69;98184.03;5069198;28;19935;-53
2023/03/21 00:34:50;;;;;;;;;;;;;;;9.00;64.01;98181.34;5063644;28;19925;-53
2023/03/21 00:37:38;;;;;;;;;;;;;;;9.14;63.04;98174.06;5083525;28;19928;-53
2023/03/21 00:40:11;;;;;;;;;;;;;;;9.12;63.14;98171.66;5066989;28;19939;-58
2023/03/21 00:42:54;;;;;;;;;;;;;;;9.10;62.61;98170.34;5066621;28;19932;-53
2023/03/21 00:45:22;;;;;;;;;;;;;;;9.17;62.05;98165.38;5067408;28;20308;-55
2023/03/21 00:47:50;;;;;;;;;;;;;;;9.17;61.75;98165.38;5081668;28;20029;-53
2023/03/21 00:50:19;;;;;;;;;;;;;;;9.12;61.84;98160.81;5069720;28;19928;-53
2023/03/21 00:52:47;;;;;;;;;;;;;;;9.06;61.99;98158.50;5061079;28;20011;-57
2023/03/21 00:55:15;;;;;;;;;;;;;;;9.07;61.64;98162.81;5069586;28;19932;-54
2023/03/21 00:57:44;;;;;;;;;;;;;;;8.99;61.84;98153.44;5064362;28;19932;-54
2023/03/21 01:00:19;;;;;;;;;;;;;;;8.92;62.36;98156.53;5069684;28;19928;-54
2023/03/21 01:02:56;;;;;;;;;;;;;;;8.89;62.10;98150.88;5062245;28;19931;-53
2023/03/21 01:06:03;;;;;;;;;;;;;;;8.92;62.35;98144.88;5075293;28;19929;-54
2023/03/21 01:08:31;;;;;;;;;;;;;;;8.86;62.38;98146.06;5080038;28;19931;-54
2023/03/21 01:11:16;;;;;;;;;;;;;;;8.90;61.34;98142.47;5068501;28;19971;-54
2023/03/21 01:13:47;;;;;;;;;;;;;;;8.85;61.84;98139.84;5068048;28;19928;-54
2023/03/21 01:16:36;;;;;;;;;;;;;;;8.76;62.07;98138.88;5078612;28;20717;-59
2023/03/21 01:19:04;;;;;;;;;;;;;;;8.77;62.08;98140.50;5069656;28;19986;-54
2023/03/21 01:21:39;;;;;;;;;;;;;;;8.85;60.81;98142.56;5070535;28;19931;-54
2023/03/21 01:24:09;;;;;;;;;;;;;;;8.82;60.97;98140.41;5087209;28;19935;-53
2023/03/21 01:26:37;;;;;;;;;;;;;;;8.79;60.68;98141.03;5068291;28;19996;-53
2023/03/21 01:29:05;;;;;;;;;;;;;;;8.82;60.97;98137.72;5070451;28;19924;-54
2023/03/21 01:31:33;;;;;;;;;;;;;;;8.73;61.06;98147.59;5067451;28;20039;-54
2023/03/21 01:34:01;;;;;;;;;;;;;;;8.80;60.65;98141.81;5068296;28;19925;-53
2023/03/21 01:36:29;;;;;;;;;;;;;;;8.69;61.21;98132.25;5071490;28;19931;-52
2023/03/21 01:39:03;;;;;;;;;;;;;;;8.71;61.36;98138.97;5068682;28;19967;-54
2023/03/21 01:41:32;;;;;;;;;;;;;;;8.75;60.72;98137.28;5081666;28;20386;-55
2023/03/21 01:44:17;;;;;;;;;;;;;;;8.72;60.33;98134.34;5071292;28;19931;-54
2023/03/21 01:46:48;;;;;;;;;;;;;;;8.71;60.90;98128.13;5086755;28;19933;-53
2023/03/21 01:49:45;;;;;;;;;;;;;;;8.65;61.16;98129.31;5064512;28;19977;-53
2023/03/21 01:52:22;;;;;;;;;;;;;;;8.58;61.86;98129.69;5076841;28;19924;-54
2023/03/21 01:55:10;;;;;;;;;;;;;;;8.58;61.29;98123.47;5068139;28;19935;-58
2023/03/21 01:57:45;;;;;;;;;;;;;;;8.65;61.38;98123.88;5068780;28;19936;-54
2023/03/21 02:00:32;;;;;;;;;;;;;;;8.57;60.76;98117.22;5068245;28;19968;-54
2023/03/21 02:03:15;;;;;;;;;;;;;;;8.56;60.68;98115.59;5068590;28;20336;-56
2023/03/21 02:06:08;;;;;;;;;;;;;;;8.53;61.31;98115.41;5065845;28;19924;-54
2023/03/21 02:08:39;;;;;;;;;;;;;;;8.53;61.37;98115.41;5068226;28;20023;-53
2023/03/21 02:11:13;;;;;;;;;;;;;;;8.66;60.70;98110.03;5070987;28;19931;-53
2023/03/21 02:13:43;;;;;;;;;;;;;;;8.72;59.78;98113.47;5064358;28;19950;-53
2023/03/21 02:16:16;;;;;;;;;;;;;;;8.73;59.71;98115.09;5068009;28;19924;-53
2023/03/21 02:18:46;;;;;;;;;;;;;;;8.65;59.75;98110.34;5069375;28;19928;-53
2023/03/21 02:21:19;;;;;;;;;;;;;;;8.68;59.96;98114.34;5071379;28;19924;-53
2023/03/21 02:24:07;;;;;;;;;;;;;;;8.62;59.97;98106.31;5083366;28;20392;-53
2023/03/21 02:26:49;;;;;;;;;;;;;;;8.56;60.37;98110.19;5083661;28;19963;-56
2023/03/21 02:29:46;;;;;;;;;;;;;;;8.56;60.08;98109.38;5071909;28;19928;-54
2023/03/21 02:32:16;;;;;;;;;;;;;;;8.51;60.02;98112.97;5069102;28;20323;-53
2023/03/21 02:35:05;;;;;;;;;;;;;;;8.49;60.40;98106.25;5060844;28;19925;-54
2023/03/21 02:37:34;;;;;;;;;;;;;;;8.31;60.84;98108.63;5063663;28;19964;-54
2023/03/21 02:40:09;;;;;;;;;;;;;;;8.49;59.85;98104.34;5067755;28;19932;-53
2023/03/21 02:42:42;;;;;;;;;;;;;;;8.35;60.74;98108.84;5088210;28;19954;-53
2023/03/21 02:45:15;;;;;;;;;;;;;;;8.48;60.57;98115.47;5067048;28;19938;-54
2023/03/21 02:47:48;;;;;;;;;;;;;;;8.37;61.03;98112.09;5064568;28;19932;-53
2023/03/21 02:50:18;;;;;;;;;;;;;;;8.41;61.11;98113.09;5086674;28;19931;-53
2023/03/21 02:52:47;;;;;;;;;;;;;;;8.57;61.11;98111.00;5067663;28;19951;-53
2023/03/21 02:55:17;;;;;;;;;;;;;;;8.50;61.78;98115.97;5068450;28;19932;-54
2023/03/21 02:58:04;;;;;;;;;;;;;;;8.43;61.47;98112.84;5067953;28;19974;-58
2023/03/21 03:00:48;;;;;;;;;;;;;;;8.53;61.45;98110.78;5069193;28;19936;-53
2023/03/21 03:03:27;;;;;;;;;;;;;;;8.55;61.33;98108.59;5063428;28;19932;-55
2023/03/21 03:06:05;;;;;;;;;;;;;;;8.49;62.19;98104.34;5062839;28;19924;-53
2023/03/21 03:08:38;;;;;;;;;;;;;;;8.52;61.74;98102.94;5068524;28;21134;-54
2023/03/21 03:11:23;;;;;;;;;;;;;;;8.45;62.26;98103.31;5070727;28;19928;-53
2023/03/21 03:13:56;;;;;;;;;;;;;;;8.47;61.63;98101.13;5066018;28;19928;-53
2023/03/21 03:16:27;;;;;;;;;;;;;;;8.39;62.33;98102.56;5065681;28;19932;-54
2023/03/21 03:18:55;;;;;;;;;;;;;;;8.35;62.09;98090.69;5067517;28;20393;-53
2023/03/21 03:21:25;;;;;;;;;;;;;;;8.38;62.31;98092.84;5065932;28;19928;-54
2023/03/21 03:23:55;;;;;;;;;;;;;;;8.45;63.00;98097.09;5067318;28;19935;-57
2023/03/21 03:26:25;;;;;;;;;;;;;;;8.44;62.70;98095.50;5056630;28;19925;-53
2023/03/21 03:28:58;;;;;;;;;;;;;;;8.43;62.68;98099.31;5069157;28;19924;-53
2023/03/21 03:31:27;;;;;;;;;;;;;;;8.26;65.04;98100.56;5082489;28;19932;-53
2023/03/21 03:34:00;;;;;;;;;;;;;;;8.24;65.83;98094.63;5069356;28;19924;-53
2023/03/21 03:36:30;;;;;;;;;;;;;;;8.19;66.47;98096.59;5067439;28;19947;-52
2023/03/21 03:39:07;;;;;;;;;;;;;;;8.19;66.66;98083.06;5067726;28;19928;-54
2023/03/21 03:41:41;;;;;;;;;;;;;;;8.20;67.08;98090.88;5068255;28;19931;-52
2023/03/21 03:44:32;;;;;;;;;;;;;;;8.23;67.64;98090.31;5067114;28;20439;-54
2023/03/21 03:47:05;;;;;;;;;;;;;;;8.24;67.32;98088.41;5061667;28;19924;-58
2023/03/21 03:49:36;;;;;;;;;;;;;;;8.22;67.54;98088.72;5068011;28;19931;-56
2023/03/21 03:52:05;;;;;;;;;;;;;;;8.20;67.92;98080.06;5069265;28;20019;-55
2023/03/21 03:54:56;;;;;;;;;;;;;;;8.18;68.17;98090.38;5065741;28;19924;-54
2023/03/21 03:57:25;;;;;;;;;;;;;;;8.17;67.89;98082.56;5067931;28;19983;-53
2023/03/21 03:59:55;;;;;;;;;;;;;;;8.14;68.23;98082.03;5066405;28;19928;-54
2023/03/21 04:02:26;;;;;;;;;;;;;;;8.17;67.93;98080.66;5068371;28;19931;-53
2023/03/21 04:04:56;;;;;;;;;;;;;;;8.16;68.22;98089.09;5067210;28;20377;-55
2023/03/21 04:07:26;;;;;;;;;;;;;;;8.17;68.36;98082.56;5066822;28;19931;-56
2023/03/21 04:09:58;;;;;;;;;;;;;;;8.14;68.54;98082.03;5065975;28;20282;-55
2023/03/21 04:12:27;;;;;;;;;;;;;;;8.14;68.74;98086.66;5068466;28;19932;-54
2023/03/21 04:15:14;;;;;;;;;;;;;;;8.02;68.73;98086.28;5063751;28;19924;-53
2023/03/21 04:17:48;;;;;;;;;;;;;;;7.92;69.57;98079.09;5066258;28;19925;-57
2023/03/21 04:20:16;;;;;;;;;;;;;;;7.88;69.67;98081.59;5071928;28;20423;-54
2023/03/21 04:23:00;;;;;;;;;;;;;;;7.69;70.31;98085.31;5067029;28;19967;-53
2023/03/21 04:25:30;;;;;;;;;;;;;;;7.59;70.77;98080.84;5068022;28;20012;-53
2023/03/21 04:28:03;;;;;;;;;;;;;;;7.53;71.23;98088.19;5070114;28;19924;-54
2023/03/21 04:30:48;;;;;;;;;;;;;;;7.37;72.18;98083.25;5058938;28;19978;-54
2023/03/21 04:33:37;;;;;;;;;;;;;;;7.38;72.17;98076.75;5067949;28;19931;-55
2023/03/21 04:36:08;;;;;;;;;;;;;;;7.39;72.32;98076.44;5066232;28;19932;-55
2023/03/21 04:38:37;;;;;;;;;;;;;;;7.25;72.73;98081.72;5068304;28;20380;-53
2023/03/21 04:41:07;;;;;;;;;;;;;;;7.45;72.10;98082.59;5067993;28;19924;-56
2023/03/21 04:43:35;;;;;;;;;;;;;;;7.48;71.98;98080.13;5065686;28;19971;-54
2023/03/21 04:46:03;;;;;;;;;;;;;;;7.50;71.72;98077.13;5065340;28;19947;-54
2023/03/21 04:48:31;;;;;;;;;;;;;;;7.36;72.29;98082.44;5071100;28;19925;-53
2023/03/21 04:51:00;;;;;;;;;;;;;;;7.24;73.05;98077.41;5071074;28;20570;-55
2023/03/21 04:53:28;;;;;;;;;;;;;;;7.14;73.01;98079.38;5073220;28;19928;-54
2023/03/21 04:55:56;;;;;;;;;;;;;;;7.09;72.89;98078.38;5070807;28;19928;-53
2023/03/21 04:58:26;;;;;;;;;;;;;;;7.01;73.54;98073.56;5071350;28;19928;-59
2023/03/21 05:00:54;;;;;;;;;;;;;;;6.98;73.80;98081.44;5069531;28;20014;-55
2023/03/21 05:03:21;;;;;;;;;;;;;;;6.95;74.10;98073.91;5069717;28;19929;-53
2023/03/21 05:05:50;;;;;;;;;;;;;;;7.04;73.92;98070.31;5074088;28;19996;-53
2023/03/21 05:08:18;;;;;;;;;;;;;;;6.96;74.29;98067.41;5070328;28;19925;-55
2023/03/21 05:10:46;;;;;;;;;;;;;;;7.02;73.70;98071.66;5067222;28;19924;-53
2023/03/21 05:13:14;;;;;;;;;;;;;;;6.95;74.53;98068.50;5071495;28;20564;-54
2023/03/21 05:15:44;;;;;;;;;;;;;;;7.01;73.82;98067.34;5065441;28;19939;-53
2023/03/21 05:18:12;;;;;;;;;;;;;;;7.04;74.34;98070.31;5066157;28;19932;-57
2023/03/21 05:20:57;;;;;;;;;;;;;;;7.20;73.20;98073.69;5065912;28;19929;-57
2023/03/21 05:23:30;;;;;;;;;;;;;;;7.26;73.07;98074.44;5069851;28;19928;-57
2023/03/21 05:25:59;;;;;;;;;;;;;;;7.37;72.94;98075.13;5072580;28;20408;-56
2023/03/21 05:28:36;;;;;;;;;;;;;;;7.47;72.56;98080.44;5068882;28;19966;-58
2023/03/21 05:31:09;;;;;;;;;;;;;;;7.62;72.20;98080.28;5067086;28;19924;-57
2023/03/21 05:33:37;;;;;;;;;;;;;;;7.67;71.77;98080.22;5067520;28;19933;-57
2023/03/21 05:36:05;;;;;;;;;;;;;;;7.64;71.79;98088.88;5068497;28;19924;-57
2023/03/21 05:38:33;;;;;;;;;;;;;;;7.70;71.44;98090.44;5064494;28;20350;-59
2023/03/21 05:41:01;;;;;;;;;;;;;;;7.78;71.49;98087.13;5062789;28;19932;-57
2023/03/21 05:43:31;;;;;;;;;;;;;;;7.93;70.54;98094.22;5069043;28;19947;-59
2023/03/21 05:45:59;;;;;;;;;;;;;;;7.97;70.94;98097.97;5087435;28;19924;-58
2023/03/21 05:48:31;;;;;;;;;;;;;;;8.07;70.48;98086.22;5069423;28;19931;-57
2023/03/21 05:51:17;;;;;;;;;;;;;;;8.12;70.44;98086.94;5085970;28;20377;-57
2023/03/21 05:53:49;;;;;;;;;;;;;;;8.21;69.61;98087.13;5067338;28;20408;-59
2023/03/21 05:56:17;;;;;;;;;;;;;;;8.19;70.11;98088.47;5068050;28;19959;-58
2023/03/21 05:58:52;;;;;;;;;;;;;;;8.24;70.19;98100.03;5068853;28;19932;-57
2023/03/21 06:01:23;;;;;;;;;;;;;;;8.29;69.89;98088.34;5071580;28;19924;-57
2023/03/21 06:04:02;;;;;;;;;;;;;;;8.38;69.62;98092.06;5068509;28;19967;-59
2023/03/21 06:06:30;;;;;;;;;;;;;;;8.42;69.03;98097.69;5068779;28;19924;-59
2023/03/21 06:09:00;;;;;;;;;;;;;;;8.45;69.01;98097.09;5068773;28;20030;-58
2023/03/21 06:11:29;;;;;;;;;;;;;;;8.50;68.79;98097.03;5068083;28;19924;-57
2023/03/21 06:14:20;;;;;;;;;;;;;;;8.57;68.25;98100.16;5060676;28;20445;-57
2023/03/21 06:17:09;;;;;;;;;;;;;;;8.58;68.05;98101.78;5069685;28;19932;-58
2023/03/21 06:19:48;;;;;;;;;;;;;;;8.69;67.62;98100.53;5082795;28;19944;-58
2023/03/21 06:22:24;;;;;;;;;;;;;;;8.73;67.98;98106.97;5068181;28;19982;-60
2023/03/21 06:24:52;;;;;;;;;;;;;;;8.75;67.38;98099.34;5066708;28;20442;-57
2023/03/21 06:27:19;;;;;;;;;;;;;;;8.86;67.02;98102.72;5066724;28;19924;-57
2023/03/21 06:29:51;;;;;;;;;;;;;;;8.85;67.48;98101.91;5068901;28;19933;-58
2023/03/21 06:32:19;;;;;;;;;;;;;;;9.01;66.73;98105.19;5069210;28;19932;-57
2023/03/21 06:34:51;;;;;;;;;;;;;;;8.86;67.25;98103.50;5067461;28;20376;-58
2023/03/21 06:37:19;;;;;;;;;;;;;;;8.93;67.10;98103.94;5075286;28;19936;-61
2023/03/21 06:39:47;;;;;;;;;;;;;;;8.92;66.94;98107.75;5062582;28;19924;-58
2023/03/21 06:42:15;;;;;;;;;;;;;;;8.98;67.21;98107.66;5087773;28;19925;-58
2023/03/21 06:44:43;;;;;;;;;;;;;;;8.97;66.91;98106.88;5072663;28;19928;-57
2023/03/21 06:47:14;;;;;;;;;;;;;;;8.97;66.89;98115.00;5086739;28;19925;-57
2023/03/21 06:49:45;;;;;;;;;;;;;;;9.11;66.92;98112.34;5071562;28;19929;-58
2023/03/21 06:52:14;;;;;;;;;;;;;;;9.09;66.74;98100.97;5069953;28;20337;-58
2023/03/21 06:54:43;;;;;;;;;;;;;;;9.01;67.26;98107.09;5068999;28;19929;-58
2023/03/21 06:57:13;;;;;;;;;;;;;;;9.10;67.15;98105.28;5058391;28;20329;-59
2023/03/21 06:59:44;;;;;;;;;;;;;;;9.17;66.60;98100.31;5066975;28;19936;-57
2023/03/21 07:02:19;;;;;;;;;;;;;;;9.32;66.04;98105.47;5068233;28;19924;-57
2023/03/21 07:05:00;;;;;;;;;;;;;;;9.43;65.19;98100.66;5070468;28;19924;-58
2023/03/21 07:07:31;;;;;;;;;;;;;;;9.49;64.90;98104.91;5069411;28;19974;-57
2023/03/21 07:09:59;;;;;;;;;;;;;;;9.62;64.81;98103.28;5087872;28;19946;-59
2023/03/21 07:12:35;;;;;;;;;;;;;;;9.64;64.31;98106.50;5067076;28;19931;-58
2023/03/21 07:15:29;;;;;;;;;;;;;;;9.71;64.61;98109.63;5069320;28;19924;-58
2023/03/21 07:17:57;;;;;;;;;;;;;;;9.88;63.96;98109.03;5069191;28;20282;-59
2023/03/21 07:20:27;;;;;;;;;;;;;;;10.04;62.90;98110.34;5068150;28;19925;-58
2023/03/21 07:22:59;;;;;;;;;;;;;;;10.05;62.84;98108.41;5069074;28;19932;-57
2023/03/21 07:25:27;;;;;;;;;;;;;;;10.15;62.70;98110.94;5069018;28;19925;-57
2023/03/21 07:27:56;;;;;;;;;;;;;;;10.24;62.88;98106.44;5085867;28;19928;-58
2023/03/21 07:30:24;;;;;;;;;;;;;;;10.38;61.70;98104.47;5065333;28;20432;-60
2023/03/21 07:32:52;;;;;;;;;;;;;;;10.46;61.43;98101.06;5065964;28;19956;-57
2023/03/21 07:35:20;;;;;;;;;;;;;;;10.51;61.19;98104.78;5068049;28;19925;-61
2023/03/21 07:37:47;;;;;;;;;;;;;;;10.45;61.99;98110.31;5067780;28;19924;-59
2023/03/21 07:40:20;;;;;;;;;;;;;;;10.48;60.62;98103.44;5066714;28;20304;-58
2023/03/21 07:42:50;;;;;;;;;;;;;;;10.46;61.12;98106.47;5068924;28;20402;-58
2023/03/21 07:45:28;;;;;;;;;;;;;;;10.32;60.96;98116.56;5066880;28;19924;-58
2023/03/21 07:47:57;;;;;;;;;;;;;;;10.23;61.01;98119.22;5083803;28;19962;-59
2023/03/21 07:50:25;;;;;;;;;;;;;;;10.43;60.72;98117.94;5081503;28;19931;-58
2023/03/21 07:52:54;;;;;;;;;;;;;;;10.51;60.15;98112.91;5066554;28;20193;-57
2023/03/21 07:55:23;;;;;;;;;;;;;;;10.45;60.87;98117.66;5063657;28;19933;-58
2023/03/21 07:57:51;;;;;;;;;;;;;;;10.63;59.91;98105.84;5067902;28;20455;-58
2023/03/21 08:00:21;;;;;;;;;;;;;;;10.73;58.19;98112.94;5068758;28;20420;-59
2023/03/21 08:02:53;;;;;;;;;;;;;;;10.96;57.69;98114.56;5069952;28;19932;-58
2023/03/21 08:05:25;;;;;;;;;;;;;;;11.11;57.11;98113.41;5070506;28;19978;-59
2023/03/21 08:07:53;;;;;;;;;;;;;;;11.28;55.97;98102.63;5068244;28;19932;-58
2023/03/21 08:10:23;;;;;;;;;;;;;;;11.40;54.91;98107.50;5069068;28;20004;-58
2023/03/21 08:12:51;;;;;;;;;;;;;;;11.55;54.77;98098.13;5071164;28;19928;-58
2023/03/21 08:15:19;;;;;;;;;;;;;;;11.66;54.69;98109.53;5085063;28;19925;-58
2023/03/21 08:17:47;;;;;;;;;;;;;;;11.82;52.86;98099.88;5066896;28;20002;-58
2023/03/21 08:20:16;;;;;;;;;;;;;;;11.82;52.71;98108.03;5064512;28;19928;-58
2023/03/21 08:22:47;;;;;;;;;;;;;;;11.73;53.39;98104.47;5064618;28;20284;-58
2023/03/21 08:25:16;;;;;;;;;;;;;;;11.82;53.02;98105.31;5072531;28;19936;-59
2023/03/21 08:27:46;;;;;;;;;;;;;;;12.05;52.06;98098.69;5073536;28;19947;-58
2023/03/21 08:30:15;;;;;;;;;;;;;;;12.02;51.55;98104.75;5073438;28;19928;-58
2023/03/21 08:32:43;;;;;;;;;;;;;;;12.18;51.27;98090.69;5064280;28;19934;-58
2023/03/21 08:35:12;;;;;;;;;;;;;;;11.95;52.65;98090.81;5071075;28;19930;-58
2023/03/21 08:37:40;;;;;;;;;;;;;;;12.02;51.32;98090.34;5070993;28;19925;-58
2023/03/21 08:40:10;;;;;;;;;;;;;;;11.96;51.74;98089.69;5072608;28;20362;-58
2023/03/21 08:42:38;;;;;;;;;;;;;;;11.89;51.75;98086.63;5072184;28;19928;-58
2023/03/21 08:45:08;;;;;;;;;;;;;;;12.13;50.13;98088.13;5071025;28;19934;-59
2023/03/21 08:47:35;;;;;;;;;;;;;;;12.31;49.51;98087.84;5065332;28;19936;-58
2023/03/21 08:50:05;;;;;;;;;;;;;;;12.40;48.01;98079.66;5066950;28;19925;-58
2023/03/21 08:52:33;;;;;;;;;;;;;;;12.29;47.19;98081.09;5063449;28;19932;-58
2023/03/21 08:55:02;;;;;;;;;;;;;;;12.36;47.94;98089.63;5072821;28;19928;-58
2023/03/21 08:57:30;;;;;;;;;;;;;;;12.38;48.04;98081.94;5073289;28;19928;-58
2023/03/21 08:59:58;;;;;;;;;;;;;;;12.46;47.70;98086.56;5070310;28;19925;-58
2023/03/21 09:02:27;;;;;;;;;;;;;;;12.53;47.08;98078.75;5069147;28;19940;-58
2023/03/21 09:04:57;;;;;;;;;;;;;;;12.61;47.36;98084.50;5073107;28;19931;-58
2023/03/21 09:07:26;;;;;;;;;;;;;;;12.84;46.34;98077.78;5068117;28;19932;-58
2023/03/21 09:09:57;;;;;;;;;;;;;;;12.95;47.67;98078.25;5067434;28;19924;-58
2023/03/21 09:12:45;;;;;;;;;;;;;;;13.21;46.11;98080.91;5070052;28;19966;-58
2023/03/21 09:15:13;;;;;;;;;;;;;;;13.16;45.94;98073.72;5070971;28;19924;-58
2023/03/21 09:17:48;;;;;;;;;;;;;;;13.11;46.23;98071.97;5079205;28;19935;-58
2023/03/21 09:20:19;;;;;;;;;;;;;;;13.44;45.39;98079.63;5072682;28;19935;-58
2023/03/21 09:22:47;;;;;;;;;;;;;;;13.38;46.10;98075.47;5072037;28;20316;-56
2023/03/21 09:25:15;;;;;;;;;;;;;;;13.78;45.41;98077.88;5069936;28;19924;-58
2023/03/21 09:27:44;;;;;;;;;;;;;;;13.84;44.87;98069.19;5071439;28;19931;-59
2023/03/21 09:30:14;;;;;;;;;;;;;;;13.97;45.06;98064.63;5068034;28;19924;-58
2023/03/21 09:32:47;;;;;;;;;;;;;;;13.83;45.98;98066.78;5083990;28;19965;-55
2023/03/21 09:35:15;;;;;;;;;;;;;;;14.05;45.05;98066.50;5063778;28;19924;-55
2023/03/21 09:37:44;;;;;;;;;;;;;;;13.85;45.27;98061.81;5072555;28;19932;-58
2023/03/21 09:40:15;;;;;;;;;;;;;;;14.09;44.48;98061.97;5069317;28;19924;-58
2023/03/21 09:42:44;;;;;;;;;;;;;;;14.02;44.49;98060.91;5068761;28;19925;-58
2023/03/21 09:45:14;;;;;;;;;;;;;;;13.91;44.78;98052.31;5084266;28;19931;-58
2023/03/21 09:47:51;;;;;;;;;;;;;;;14.15;45.84;98055.19;5069475;28;19924;-58
2023/03/21 09:50:21;;;;;;;;;;;;;;;14.12;44.68;98055.88;5066143;28;19924;-58
2023/03/21 09:52:51;;;;;;;;;;;;;;;14.24;44.16;98055.16;5076708;28;19931;-58
2023/03/21 09:55:20;;;;;;;;;;;;;;;14.34;44.70;98062.16;5065741;28;19954;-59
2023/03/21 09:57:49;;;;;;;;;;;;;;;14.66;44.43;98053.25;5069274;28;19963;-58
2023/03/21 10:00:19;;;;;;;;;;;;;;;14.71;43.59;98040.53;5069043;28;20369;-59
2023/03/21 10:02:52;;;;;;;;;;;;;;;14.87;42.88;98041.50;5069622;28;19924;-58
2023/03/21 10:05:24;;;;;;;;;;;;;;;14.74;43.24;98037.91;5070330;28;19964;-58
2023/03/21 10:07:53;;;;;;;;;;;;;;;14.76;42.00;98043.84;5066020;28;20381;-57
2023/03/21 10:10:22;;;;;;;;;;;;;;;14.73;42.29;98030.03;5070949;28;20309;-57
2023/03/21 10:12:50;;;;;;;;;;;;;;;14.57;43.13;98033.38;5068118;28;19924;-58
2023/03/21 10:15:19;;;;;;;;;;;;;;;14.84;42.61;98029.28;5071270;28;20297;-58
2023/03/21 10:17:49;;;;;;;;;;;;;;;14.96;42.51;98030.47;5069434;28;19931;-59
2023/03/21 10:20:20;;;;;;;;;;;;;;;15.27;42.36;98021.78;5071210;28;19951;-58
2023/03/21 10:22:48;;;;;;;;;;;;;;;15.24;41.67;98008.78;5066644;28;19943;-59
2023/03/21 10:25:17;;;;;;;;;;;;;;;15.47;42.21;98009.94;5068213;28;19931;-55
2023/03/21 10:27:44;;;;;;;;;;;;;;;15.45;40.47;98004.03;5068353;28;19928;-56
2023/03/21 10:30:16;;;;;;;;;;;;;;;15.62;40.89;98011.22;5063065;28;19924;-58
2023/03/21 10:32:44;;;;;;;;;;;;;;;15.76;39.59;98010.88;5069814;28;19924;-58
2023/03/21 10:35:13;;;;;;;;;;;;;;;15.67;39.45;98003.59;5063433;28;19955;-59
2023/03/21 10:37:42;;;;;;;;;;;;;;;15.52;39.63;98000.72;5067631;28;19939;-58
2023/03/21 10:40:14;;;;;;;;;;;;;;;15.50;40.95;98003.81;5062348;28;20354;-59
2023/03/21 10:42:42;;;;;;;;;;;;;;;15.22;40.84;98002.84;5071353;28;20015;-58
2023/03/21 10:45:16;;;;;;;;;;;;;;;15.20;40.71;98000.44;5070308;28;19924;-59
2023/03/21 10:47:46;;;;;;;;;;;;;;;15.23;40.12;97988.81;5084881;28;20289;-58
2023/03/21 10:50:16;;;;;;;;;;;;;;;15.07;40.12;97991.38;5063730;28;19928;-58
2023/03/21 10:52:47;;;;;;;;;;;;;;;15.21;40.26;97991.09;5066357;28;19925;-58
2023/03/21 10:55:20;;;;;;;;;;;;;;;15.47;40.65;97988.03;5064874;28;20359;-57
2023/03/21 10:57:48;;;;;;;;;;;;;;;15.57;39.45;97987.59;5069446;28;20301;-57
2023/03/21 11:00:19;;;;;;;;;;;;;;;15.71;39.82;97984.53;5072921;28;19924;-59
2023/03/21 11:02:50;;;;;;;;;;;;;;;15.88;39.99;97980.78;5069972;28;19974;-58
2023/03/21 11:05:21;;;;;;;;;;;;;;;15.93;39.01;97978.59;5068565;28;19977;-58
2023/03/21 11:07:51;;;;;;;;;;;;;;;15.77;39.15;97979.66;5064153;28;19966;-58
2023/03/21 11:10:26;;;;;;;;;;;;;;;15.83;38.82;97981.00;5065740;28;19928;-58
2023/03/21 11:12:56;;;;;;;;;;;;;;;15.64;38.43;97971.41;5066301;28;19924;-58
2023/03/21 11:15:29;;;;;;;;;;;;;;;15.67;39.19;97975.41;5067979;28;20472;-58
2023/03/21 11:17:56;;;;;;;;;;;;;;;15.48;38.73;97972.41;5063779;28;19932;-59
2023/03/21 11:20:31;;;;;;;;;;;;;;;15.42;39.45;97978.09;5066999;28;20007;-62
2023/03/21 11:23:00;;;;;;;;;;;;;;;15.56;39.60;97963.31;5066753;28;20286;-59
2023/03/21 11:25:31;;;;;;;;;;;;;;;15.56;39.39;97961.34;5066434;28;20059;-58
2023/03/21 11:27:59;;;;;;;;;;;;;;;15.60;39.56;97964.19;5071894;28;19933;-59
2023/03/21 11:30:27;;;;;;;;;;;;;;;15.80;39.84;97959.75;5066203;28;19936;-59
2023/03/21 11:32:55;;;;;;;;;;;;;;;15.92;39.50;97949.56;5069337;28;19924;-57
2023/03/21 11:35:24;;;;;;;;;;;;;;;15.97;39.43;97956.75;5067171;28;19924;-58
2023/03/21 11:37:52;;;;;;;;;;;;;;;15.90;40.14;97951.06;5066270;28;19935;-55
2023/03/21 11:40:23;;;;;;;;;;;;;;;16.16;39.55;97951.47;5066893;28;20423;-55
2023/03/21 11:42:52;;;;;;;;;;;;;;;16.16;39.81;97943.25;5064655;28;19931;-57
2023/03/21 11:45:20;;;;;;;;;;;;;;;15.88;40.01;97950.63;5071225;28;19929;-59
2023/03/21 11:47:49;;;;;;;;;;;;;;;16.04;40.41;97947.97;5066407;28;19924;-58
2023/03/21 11:50:18;;;;;;;;;;;;;;;16.17;40.05;97944.84;5069785;28;19930;-57
2023/03/21 11:52:49;;;;;;;;;;;;;;;16.07;40.54;97934.38;5067450;28;19924;-60
2023/03/21 11:55:26;;;;;;;;;;;;;;;16.20;40.63;97949.66;5062395;28;19933;-58
2023/03/21 11:57:57;;;;;;;;;;;;;;;15.78;40.60;97934.66;5067838;28;19973;-58
2023/03/21 12:00:36;;;;;;;;;;;;;;;15.65;41.35;97929.19;5063819;28;19929;-58
2023/03/21 12:03:11;;;;;;;;;;;;;;;15.82;41.46;97930.06;5068197;28;19974;-58
2023/03/21 12:05:40;;;;;;;;;;;;;;;15.82;41.65;97930.06;5065154;28;19924;-58
2023/03/21 12:08:09;;;;;;;;;;;;;;;15.88;42.20;97929.50;5068419;28;19929;-58
2023/03/21 12:10:40;;;;;;;;;;;;;;;15.91;41.48;97922.53;5070161;28;19924;-55
2023/03/21 12:13:10;;;;;;;;;;;;;;;15.96;41.66;97919.56;5061857;28;19932;-55
2023/03/21 12:15:39;;;;;;;;;;;;;;;16.16;41.05;97913.09;5062883;28;19929;-58
2023/03/21 12:18:10;;;;;;;;;;;;;;;16.13;40.97;97910.25;5069536;28;19925;-58
2023/03/21 12:20:41;;;;;;;;;;;;;;;15.97;41.31;97910.19;5068405;28;19961;-57
2023/03/21 12:23:16;;;;;;;;;;;;;;;16.09;41.70;97901.94;5067979;28;19935;-58
2023/03/21 12:25:46;;;;;;;;;;;;;;;16.31;41.61;97900.59;5064655;28;20045;-58
2023/03/21 12:28:17;;;;;;;;;;;;;;;16.23;41.21;97887.84;5065536;28;20396;-58
2023/03/21 12:30:59;;;;;;;;;;;;;;;16.12;42.12;97898.50;5060963;28;20391;-58
2023/03/21 12:33:35;;;;;;;;;;;;;;;16.09;41.90;97888.25;5089563;28;19946;-58
2023/03/21 12:36:15;;;;;;;;;;;;;;;15.88;42.05;97893.09;5069448;28;19958;-58
2023/03/21 12:38:43;;;;;;;;;;;;;;;16.01;41.86;97885.63;5068467;28;19939;-57
2023/03/21 12:41:18;;;;;;;;;;;;;;;16.20;42.23;97877.59;5070180;28;19935;-59
2023/03/21 12:43:46;;;;;;;;;;;;;;;16.18;41.43;97882.59;5077353;28;20384;-57
2023/03/21 12:46:17;;;;;;;;;;;;;;;16.00;41.59;97867.59;5068888;28;19947;-58
2023/03/21 12:48:46;;;;;;;;;;;;;;;16.06;41.80;97872.50;5065493;28;20411;-57
2023/03/21 12:51:15;;;;;;;;;;;;;;;16.12;41.65;97868.34;5069793;28;19935;-57
2023/03/21 12:53:47;;;;;;;;;;;;;;;16.10;41.77;97873.41;5061731;28;19946;-57
2023/03/21 12:56:17;;;;;;;;;;;;;;;16.02;42.19;97874.31;5066582;28;19943;-57
2023/03/21 12:58:47;;;;;;;;;;;;;;;16.05;42.35;97865.41;5066438;28;20474;-58
2023/03/21 13:01:15;;;;;;;;;;;;;;;16.00;42.53;97865.66;5064524;28;19925;-58
2023/03/21 13:03:44;;;;;;;;;;;;;;;15.99;42.94;97861.34;5062205;28;19935;-59
2023/03/21 13:06:13;;;;;;;;;;;;;;;16.03;42.50;97855.94;5066577;28;19963;-55
2023/03/21 13:08:42;;;;;;;;;;;;;;;16.08;42.39;97847.47;5071388;28;20669;-57
2023/03/21 13:11:11;;;;;;;;;;;;;;;16.11;42.81;97853.06;5073287;28;19941;-57
2023/03/21 13:13:40;;;;;;;;;;;;;;;16.12;42.79;97849.16;5068460;28;20393;-57
2023/03/21 13:16:10;;;;;;;;;;;;;;;16.23;42.58;97839.28;5066870;28;19933;-57
2023/03/21 13:18:40;;;;;;;;;;;;;;;16.20;42.63;97834.53;5072361;28;19931;-58